Time;durP1;ratioP1;P1;durP2;ratioP2;P2;SDS_P1;SDS_P2;PMS_P1;PMS_P2;Temp;Humidity;BMP_temperature;BMP_pressure;BME280_temperature;BME280_humidity;BME280_pressure;Samples;Min_cycle;Max_cycle;Signal;HPM_P1;HPM_P2
2023/03/07 00:01:43;;;;;;;23.00;2.53;;;;;;;;;;4999193;28;20668;-69
2023/03/07 00:04:11;;;;;;;17.80;1.48;;;;;;;;;;5001072;28;20550;-69
2023/03/07 00:06:38;;;;;;;23.13;2.13;;;;;;;;;;4978407;28;20058;-69
2023/03/07 00:09:06;;;;;;;10.70;1.30;;;;;;;;;;4997995;28;20054;-69
2023/03/07 00:11:33;;;;;;;14.52;1.50;;;;;;;;;;4991845;28;20061;-69
2023/03/07 00:14:00;;;;;;;23.08;1.85;;;;;;;;;;4997735;28;20050;-69
2023/03/07 00:16:29;;;;;;;13.65;1.80;;;;;;;;;;4999787;28;20466;-68
2023/03/07 00:18:56;;;;;;;38.85;5.07;;;;;;;;;;4995552;28;20049;-68
2023/03/07 00:21:26;;;;;;;17.15;1.75;;;;;;;;;;5009889;28;20081;-68
2023/03/07 00:23:53;;;;;;;22.27;2.20;;;;;;;;;;5003706;28;20086;-69
2023/03/07 00:26:22;;;;;;;18.98;1.73;;;;;;;;;;4999590;28;20046;-69
2023/03/07 00:28:50;;;;;;;20.48;1.75;;;;;;;;;;4994536;28;20054;-68
2023/03/07 00:31:17;;;;;;;22.52;2.58;;;;;;;;;;4998173;28;20374;-69
2023/03/07 00:33:46;;;;;;;17.63;1.70;;;;;;;;;;5003562;28;20046;-68
2023/03/07 00:36:14;;;;;;;20.30;2.20;;;;;;;;;;4997340;28;20061;-68
2023/03/07 00:38:42;;;;;;;21.05;1.60;;;;;;;;;;4999843;28;20153;-68
2023/03/07 00:41:10;;;;;;;17.27;1.65;;;;;;;;;;5001326;28;20053;-68
2023/03/07 00:43:37;;;;;;;18.60;1.95;;;;;;;;;;5000620;28;20212;-68
2023/03/07 00:46:05;;;;;;;18.23;1.48;;;;;;;;;;5000569;28;20440;-69
2023/03/07 00:48:34;;;;;;;23.08;2.38;;;;;;;;;;4994937;28;20140;-69
2023/03/07 00:51:02;;;;;;;21.60;2.53;;;;;;;;;;5008487;28;20045;-68
2023/03/07 00:53:30;;;;;;;11.55;1.35;;;;;;;;;;5001922;28;20050;-68
2023/03/07 00:55:58;;;;;;;17.35;1.38;;;;;;;;;;4998502;28;20108;-68
2023/03/07 00:58:26;;;;;;;16.65;1.92;;;;;;;;;;4996412;28;20042;-68
2023/03/07 01:00:53;;;;;;;13.25;1.20;;;;;;;;;;4999412;28;20058;-69
2023/03/07 01:03:21;;;;;;;12.55;1.13;;;;;;;;;;4999205;28;20050;-69
2023/03/07 01:05:48;;;;;;;12.15;1.20;;;;;;;;;;4998415;28;20050;-68
2023/03/07 01:08:17;;;;;;;9.90;1.08;;;;;;;;;;5001040;28;20489;-68
2023/03/07 01:10:44;;;;;;;11.57;1.40;;;;;;;;;;4999020;28;20064;-68
2023/03/07 01:13:12;;;;;;;16.10;1.58;;;;;;;;;;4996248;28;20050;-68
2023/03/07 01:15:40;;;;;;;10.48;1.23;;;;;;;;;;5002661;28;20068;-68
2023/03/07 01:18:07;;;;;;;11.45;1.23;;;;;;;;;;5000382;28;20054;-68
2023/03/07 01:20:35;;;;;;;11.27;1.63;;;;;;;;;;4979751;28;20058;-68
2023/03/07 01:23:03;;;;;;;18.90;1.67;;;;;;;;;;4980327;28;20042;-68
2023/03/07 01:25:32;;;;;;;12.73;2.38;;;;;;;;;;4985024;28;20054;-68
2023/03/07 01:27:59;;;;;;;10.70;1.05;;;;;;;;;;4991634;28;20043;-67
2023/03/07 01:30:26;;;;;;;14.75;1.90;;;;;;;;;;4999882;28;20052;-68
2023/03/07 01:32:57;;;;;;;7.57;1.30;;;;;;;;;;5003563;28;20042;-68
2023/03/07 01:35:24;;;;;;;11.05;1.05;;;;;;;;;;4989514;28;20056;-68
2023/03/07 01:37:52;;;;;;;16.67;1.60;;;;;;;;;;4981421;28;20315;-68
2023/03/07 01:40:20;;;;;;;14.05;1.42;;;;;;;;;;5005265;28;20057;-68
2023/03/07 01:42:48;;;;;;;7.57;1.13;;;;;;;;;;4999397;28;20080;-68
2023/03/07 01:45:34;;;;;;;9.95;1.05;;;;;;;;;;4988665;28;20043;-68
2023/03/07 01:48:01;;;;;;;15.35;1.92;;;;;;;;;;4978140;28;20490;-68
2023/03/07 01:50:29;;;;;;;17.95;1.73;;;;;;;;;;4982506;28;20060;-68
2023/03/07 01:52:57;;;;;;;19.35;2.38;;;;;;;;;;4992471;28;20046;-68
2023/03/07 01:55:26;;;;;;;14.82;2.13;;;;;;;;;;4984775;28;20054;-68
2023/03/07 01:57:55;;;;;;;13.82;2.10;;;;;;;;;;4973448;28;20069;-68
2023/03/07 02:00:28;;;;;;;22.73;1.70;;;;;;;;;;4992782;28;20053;-68
2023/03/07 02:03:00;;;;;;;18.52;1.83;;;;;;;;;;4981383;28;20081;-68
2023/03/07 02:05:29;;;;;;;22.30;1.92;;;;;;;;;;4995614;28;20078;-68
2023/03/07 02:07:57;;;;;;;17.17;1.75;;;;;;;;;;4977689;28;20063;-68
2023/03/07 02:10:25;;;;;;;20.20;1.92;;;;;;;;;;4974490;28;20054;-68
2023/03/07 02:12:54;;;;;;;16.65;2.08;;;;;;;;;;4993659;28;20735;-68
2023/03/07 02:15:22;;;;;;;14.98;1.67;;;;;;;;;;4992749;28;20046;-68
2023/03/07 02:17:50;;;;;;;22.52;1.83;;;;;;;;;;4989276;28;20046;-68
2023/03/07 02:20:23;;;;;;;10.57;1.30;;;;;;;;;;4985292;28;20384;-68
2023/03/07 02:22:51;;;;;;;10.02;1.20;;;;;;;;;;4989267;28;20135;-68
2023/03/07 02:25:20;;;;;;;10.82;1.10;;;;;;;;;;4992880;28;20042;-68
2023/03/07 02:27:50;;;;;;;19.65;1.45;;;;;;;;;;4989432;28;20085;-68
2023/03/07 02:30:18;;;;;;;11.73;1.73;;;;;;;;;;5000090;28;20057;-68
2023/03/07 02:32:45;;;;;;;9.10;1.25;;;;;;;;;;4990357;28;20414;-68
2023/03/07 02:35:17;;;;;;;17.77;2.03;;;;;;;;;;4997266;28;20431;-68
2023/03/07 02:37:47;;;;;;;17.95;1.50;;;;;;;;;;4996914;28;20062;-68
2023/03/07 02:40:16;;;;;;;13.18;1.40;;;;;;;;;;4973940;28;20042;-68
2023/03/07 02:42:44;;;;;;;14.00;1.77;;;;;;;;;;4992323;28;20058;-69
2023/03/07 02:45:14;;;;;;;11.52;1.65;;;;;;;;;;4993291;28;20195;-68
2023/03/07 02:47:42;;;;;;;9.15;1.25;;;;;;;;;;4994346;28;20347;-68
2023/03/07 02:50:10;;;;;;;11.27;1.15;;;;;;;;;;4993309;28;20054;-68
2023/03/07 02:52:37;;;;;;;10.13;1.10;;;;;;;;;;4976285;28;20062;-68
2023/03/07 02:55:05;;;;;;;10.98;1.55;;;;;;;;;;4991690;28;20050;-68
2023/03/07 02:57:32;;;;;;;11.30;1.75;;;;;;;;;;4988710;28;20054;-68
2023/03/07 02:59:59;;;;;;;12.15;1.13;;;;;;;;;;4996553;28;20046;-68
2023/03/07 03:02:28;;;;;;;12.27;1.25;;;;;;;;;;4976017;28;20405;-68
2023/03/07 03:04:55;;;;;;;12.85;1.25;;;;;;;;;;4996332;28;20049;-68
2023/03/07 03:07:23;;;;;;;13.95;1.10;;;;;;;;;;4992083;28;20553;-68
2023/03/07 03:09:50;;;;;;;12.73;0.80;;;;;;;;;;4995212;28;20513;-68
2023/03/07 03:12:17;;;;;;;11.45;1.55;;;;;;;;;;4987315;28;20057;-68
2023/03/07 03:14:44;;;;;;;8.45;1.65;;;;;;;;;;5000931;28;20127;-68
2023/03/07 03:17:12;;;;;;;15.27;1.17;;;;;;;;;;4981515;28;20053;-68
2023/03/07 03:19:41;;;;;;;12.80;1.73;;;;;;;;;;4991222;28;20050;-68
2023/03/07 03:22:08;;;;;;;12.07;1.40;;;;;;;;;;4979821;28;20050;-69
2023/03/07 03:24:38;;;;;;;10.85;1.30;;;;;;;;;;5000159;28;20054;-68
2023/03/07 03:27:05;;;;;;;10.25;1.05;;;;;;;;;;4976915;28;20117;-68
2023/03/07 03:29:33;;;;;;;11.38;1.25;;;;;;;;;;4981302;28;20054;-68
2023/03/07 03:32:00;;;;;;;13.77;1.10;;;;;;;;;;4995937;28;20080;-67
2023/03/07 03:34:28;;;;;;;12.98;1.73;;;;;;;;;;4990976;28;20494;-68
2023/03/07 03:36:56;;;;;;;11.45;1.40;;;;;;;;;;4989359;28;20067;-68
2023/03/07 03:39:24;;;;;;;10.55;1.30;;;;;;;;;;4995475;28;20542;-68
2023/03/07 03:41:51;;;;;;;20.02;1.80;;;;;;;;;;4989484;28;20053;-68
2023/03/07 03:44:18;;;;;;;14.60;2.15;;;;;;;;;;4976559;28;20140;-67
2023/03/07 03:46:45;;;;;;;14.40;1.85;;;;;;;;;;4975970;28;20052;-68
2023/03/07 03:49:13;;;;;;;16.85;2.83;;;;;;;;;;4976954;28;20481;-68
2023/03/07 03:51:40;;;;;;;15.18;1.33;;;;;;;;;;4993097;28;20062;-68
2023/03/07 03:54:09;;;;;;;13.88;1.63;;;;;;;;;;4991436;28;20058;-68
2023/03/07 03:56:36;;;;;;;16.85;1.50;;;;;;;;;;4994664;28;20053;-69
2023/03/07 03:59:03;;;;;;;16.83;1.65;;;;;;;;;;4977919;28;20047;-68
2023/03/07 04:01:30;;;;;;;21.17;2.05;;;;;;;;;;4983101;28;20058;-68
2023/03/07 04:03:58;;;;;;;16.92;1.65;;;;;;;;;;4990436;28;20042;-68
2023/03/07 04:06:26;;;;;;;11.50;1.20;;;;;;;;;;4994226;28;20049;-68
2023/03/07 04:08:54;;;;;;;13.38;1.30;;;;;;;;;;4992932;28;20414;-68
2023/03/07 04:11:23;;;;;;;11.32;0.90;;;;;;;;;;4991300;28;20054;-68
2023/03/07 04:13:50;;;;;;;11.30;1.35;;;;;;;;;;4993898;28;20058;-68
2023/03/07 04:16:18;;;;;;;8.75;1.35;;;;;;;;;;5000584;28;20057;-68
2023/03/07 04:18:45;;;;;;;12.00;1.42;;;;;;;;;;4996910;28;20051;-68
2023/03/07 04:21:12;;;;;;;13.70;1.40;;;;;;;;;;4986957;28;20051;-68
2023/03/07 04:23:40;;;;;;;15.32;1.90;;;;;;;;;;4984296;28;20081;-68
2023/03/07 04:26:08;;;;;;;12.43;1.65;;;;;;;;;;4994144;28;20054;-68
2023/03/07 04:28:42;;;;;;;12.00;1.25;;;;;;;;;;4995143;28;20081;-68
2023/03/07 04:31:10;;;;;;;19.08;2.10;;;;;;;;;;5001044;28;20057;-68
2023/03/07 04:33:37;;;;;;;19.05;1.75;;;;;;;;;;5000542;28;20056;-68
2023/03/07 04:36:04;;;;;;;12.43;1.70;;;;;;;;;;4990025;28;20046;-68
2023/03/07 04:38:32;;;;;;;14.63;1.50;;;;;;;;;;4980233;28;20085;-68
2023/03/07 04:40:59;;;;;;;17.70;2.22;;;;;;;;;;4995491;28;20057;-68
2023/03/07 04:43:26;;;;;;;16.50;1.88;;;;;;;;;;4991763;28;20073;-68
2023/03/07 04:45:55;;;;;;;11.88;1.45;;;;;;;;;;4998068;28;20504;-69
2023/03/07 04:48:22;;;;;;;18.10;2.60;;;;;;;;;;5001465;28;20050;-68
2023/03/07 04:50:50;;;;;;;11.55;1.60;;;;;;;;;;4997492;28;20145;-68
2023/03/07 04:53:17;;;;;;;11.50;1.52;;;;;;;;;;4996102;28;20046;-68
2023/03/07 04:55:45;;;;;;;15.40;1.52;;;;;;;;;;4989098;28;20066;-69
2023/03/07 04:58:12;;;;;;;14.43;1.23;;;;;;;;;;4978888;28;20070;-68
2023/03/07 05:00:40;;;;;;;11.70;1.45;;;;;;;;;;4993349;28;20473;-68
2023/03/07 05:03:09;;;;;;;12.27;1.13;;;;;;;;;;5001805;28;20076;-68
2023/03/07 05:05:37;;;;;;;9.75;0.98;;;;;;;;;;4981693;28;20070;-68
2023/03/07 05:08:04;;;;;;;14.35;1.35;;;;;;;;;;4995344;28;20141;-69
2023/03/07 05:10:32;;;;;;;10.25;1.48;;;;;;;;;;4995261;28;20053;-68
2023/03/07 05:12:59;;;;;;;6.65;1.17;;;;;;;;;;4994612;28;20042;-68
2023/03/07 05:15:26;;;;;;;7.85;0.90;;;;;;;;;;4997697;28;20058;-68
2023/03/07 05:17:54;;;;;;;7.30;1.10;;;;;;;;;;4998962;28;20050;-68
2023/03/07 05:20:22;;;;;;;13.43;1.38;;;;;;;;;;4997255;28;20056;-68
2023/03/07 05:22:50;;;;;;;9.52;2.05;;;;;;;;;;4990149;28;20054;-68
2023/03/07 05:25:17;;;;;;;10.73;1.52;;;;;;;;;;4995444;28;20080;-68
2023/03/07 05:27:44;;;;;;;16.17;2.63;;;;;;;;;;4994928;28;20068;-68
2023/03/07 05:30:12;;;;;;;28.92;7.22;;;;;;;;;;5004375;28;20517;-68
2023/03/07 05:32:40;;;;;;;16.35;4.00;;;;;;;;;;4996086;28;20085;-68
2023/03/07 05:35:08;;;;;;;14.23;5.00;;;;;;;;;;4997366;28;20136;-68
2023/03/07 05:37:37;;;;;;;8.90;1.10;;;;;;;;;;4995261;28;20058;-68
2023/03/07 05:40:07;;;;;;;12.15;1.20;;;;;;;;;;4992731;28;20042;-69
2023/03/07 05:42:35;;;;;;;14.65;1.10;;;;;;;;;;4993889;28;20474;-68
2023/03/07 05:45:02;;;;;;;8.43;1.10;;;;;;;;;;4994083;28;20049;-68
2023/03/07 05:47:30;;;;;;;11.93;1.65;;;;;;;;;;4995300;28;20049;-68
2023/03/07 05:49:57;;;;;;;11.73;1.30;;;;;;;;;;4996182;28;20046;-67
2023/03/07 05:52:24;;;;;;;13.23;1.45;;;;;;;;;;5001192;28;20633;-68
2023/03/07 05:54:53;;;;;;;12.07;1.13;;;;;;;;;;4978151;28;20065;-68
2023/03/07 05:57:20;;;;;;;3.45;0.70;;;;;;;;;;5003441;28;20046;-69
2023/03/07 05:59:47;;;;;;;2.67;0.55;;;;;;;;;;4978671;28;20046;-70
2023/03/07 06:02:15;;;;;;;4.85;0.63;;;;;;;;;;4997232;28;20058;-70
2023/03/07 06:04:42;;;;;;;4.88;0.40;;;;;;;;;;4979069;28;20486;-70
2023/03/07 06:07:09;;;;;;;7.18;0.70;;;;;;;;;;5003315;28;20053;-70
2023/03/07 06:09:36;;;;;;;9.27;0.68;;;;;;;;;;4996236;28;20085;-70
2023/03/07 06:12:05;;;;;;;6.78;0.65;;;;;;;;;;4997531;28;20049;-70
2023/03/07 06:14:33;;;;;;;5.00;0.35;;;;;;;;;;4996400;28;20050;-70
2023/03/07 06:17:01;;;;;;;6.32;0.68;;;;;;;;;;4982968;28;20054;-70
2023/03/07 06:19:28;;;;;;;5.93;0.68;;;;;;;;;;4995808;28;20125;-70
2023/03/07 06:21:55;;;;;;;14.27;1.00;;;;;;;;;;4994376;28;20478;-70
2023/03/07 06:24:23;;;;;;;7.43;0.73;;;;;;;;;;4998141;28;20524;-70
2023/03/07 06:26:50;;;;;;;13.23;0.95;;;;;;;;;;4999719;28;20436;-70
2023/03/07 06:29:19;;;;;;;7.70;0.95;;;;;;;;;;4995307;28;20489;-70
2023/03/07 06:31:46;;;;;;;10.20;1.10;;;;;;;;;;4994740;28;20401;-70
2023/03/07 06:34:13;;;;;;;9.65;0.70;;;;;;;;;;4993225;28;20061;-70
2023/03/07 06:36:41;;;;;;;13.38;1.27;;;;;;;;;;5001740;28;20061;-70
2023/03/07 06:39:08;;;;;;;6.35;0.88;;;;;;;;;;4995331;28;20049;-70
2023/03/07 06:41:35;;;;;;;9.23;0.88;;;;;;;;;;4978638;28;20058;-70
2023/03/07 06:44:02;;;;;;;8.93;0.93;;;;;;;;;;4989964;28;20537;-70
2023/03/07 06:46:31;;;;;;;10.15;1.05;;;;;;;;;;4994854;28;20061;-70
2023/03/07 06:48:58;;;;;;;6.18;0.50;;;;;;;;;;4987424;28;20058;-70
2023/03/07 06:51:26;;;;;;;6.90;0.50;;;;;;;;;;5000170;28;20393;-70
2023/03/07 06:53:53;;;;;;;7.22;0.77;;;;;;;;;;4992258;28;20101;-71
2023/03/07 06:56:20;;;;;;;17.65;4.72;;;;;;;;;;4983049;28;20055;-70
2023/03/07 06:58:47;;;;;;;9.40;0.82;;;;;;;;;;4990109;28;20049;-69
2023/03/07 07:01:18;;;;;;;14.05;2.80;;;;;;;;;;4988587;28;20050;-70
2023/03/07 07:03:46;;;;;;;3.17;0.63;;;;;;;;;;5000108;28;20050;-70
2023/03/07 07:06:14;;;;;;;7.68;0.85;;;;;;;;;;4989476;28;20046;-70
2023/03/07 07:08:41;;;;;;;3.83;0.47;;;;;;;;;;4988673;28;20046;-70
2023/03/07 07:11:08;;;;;;;5.72;0.60;;;;;;;;;;4989525;28;20494;-69
2023/03/07 07:13:36;;;;;;;2.97;0.40;;;;;;;;;;4990736;28;20054;-69
2023/03/07 07:16:06;;;;;;;4.70;0.60;;;;;;;;;;4996716;28;20046;-69
2023/03/07 07:18:34;;;;;;;6.80;0.65;;;;;;;;;;4996691;28;20058;-69
2023/03/07 07:21:02;;;;;;;8.23;0.80;;;;;;;;;;4995837;28;20045;-69
2023/03/07 07:23:30;;;;;;;7.60;0.70;;;;;;;;;;4993628;28;20132;-69
2023/03/07 07:25:57;;;;;;;5.80;0.73;;;;;;;;;;4993019;28;20051;-69
2023/03/07 07:28:24;;;;;;;9.82;0.90;;;;;;;;;;4974681;28;20053;-69
2023/03/07 07:30:52;;;;;;;10.75;0.82;;;;;;;;;;4999103;28;20401;-69
2023/03/07 07:33:19;;;;;;;6.75;0.68;;;;;;;;;;4995579;28;20370;-70
2023/03/07 07:35:47;;;;;;;14.20;1.55;;;;;;;;;;4993009;28;20065;-70
2023/03/07 07:38:15;;;;;;;8.27;1.13;;;;;;;;;;4988540;28;20062;-70
2023/03/07 07:40:43;;;;;;;7.45;0.85;;;;;;;;;;4974023;28;20049;-70
2023/03/07 07:43:13;;;;;;;10.50;1.60;;;;;;;;;;4974054;28;20078;-70
2023/03/07 07:45:41;;;;;;;6.32;0.65;;;;;;;;;;4977776;28;20057;-69
2023/03/07 07:48:08;;;;;;;8.13;0.90;;;;;;;;;;4984136;28;20050;-69
2023/03/07 07:50:35;;;;;;;10.20;1.00;;;;;;;;;;4993440;28;20054;-69
2023/03/07 07:53:03;;;;;;;8.68;1.40;;;;;;;;;;4991192;28;20493;-70
2023/03/07 07:55:31;;;;;;;4.65;0.90;;;;;;;;;;4992740;28;20072;-70
2023/03/07 07:57:59;;;;;;;8.43;1.20;;;;;;;;;;4973301;28;20062;-69
2023/03/07 08:00:26;;;;;;;6.30;0.80;;;;;;;;;;4995109;28;20052;-70
2023/03/07 08:02:53;;;;;;;15.05;1.13;;;;;;;;;;4997308;28;20061;-70
2023/03/07 08:05:21;;;;;;;13.65;1.17;;;;;;;;;;4994424;28;20405;-70
2023/03/07 08:07:49;;;;;;;9.75;1.30;;;;;;;;;;4980048;28;20405;-70
2023/03/07 08:10:17;;;;;;;9.85;0.93;;;;;;;;;;4995488;28;20042;-69
2023/03/07 08:12:46;;;;;;;4.97;0.98;;;;;;;;;;4993324;28;20058;-69
2023/03/07 08:15:15;;;;;;;6.00;0.73;;;;;;;;;;4977601;28;20129;-70
2023/03/07 08:17:43;;;;;;;4.40;0.73;;;;;;;;;;4994119;28;20050;-70
2023/03/07 08:20:11;;;;;;;12.40;0.75;;;;;;;;;;5000438;28;20073;-70
2023/03/07 08:22:38;;;;;;;5.20;0.70;;;;;;;;;;4999182;28;20049;-70
2023/03/07 08:25:05;;;;;;;5.10;1.33;;;;;;;;;;4999838;28;20062;-70
2023/03/07 08:27:33;;;;;;;5.45;0.63;;;;;;;;;;5003939;28;20054;-70
2023/03/07 08:30:02;;;;;;;6.18;0.50;;;;;;;;;;5005254;28;20057;-69
2023/03/07 08:32:29;;;;;;;11.07;1.20;;;;;;;;;;4982780;28;20614;-69
2023/03/07 08:34:56;;;;;;;10.98;1.05;;;;;;;;;;5001595;28;20046;-69
2023/03/07 08:37:23;;;;;;;7.65;0.90;;;;;;;;;;5005930;28;20552;-69
2023/03/07 08:39:51;;;;;;;6.57;0.57;;;;;;;;;;4995541;28;20045;-70
2023/03/07 08:42:19;;;;;;;8.63;1.20;;;;;;;;;;4989377;28;20096;-69
2023/03/07 08:44:46;;;;;;;9.73;1.02;;;;;;;;;;4993124;28;20050;-69
2023/03/07 08:47:15;;;;;;;9.68;0.80;;;;;;;;;;4995826;28;20164;-70
2023/03/07 08:49:42;;;;;;;7.70;0.90;;;;;;;;;;4995511;28;20121;-69
2023/03/07 08:52:10;;;;;;;7.38;0.80;;;;;;;;;;4996452;28;20061;-69
2023/03/07 08:54:37;;;;;;;6.80;0.70;;;;;;;;;;4988979;28;20148;-69
2023/03/07 08:57:04;;;;;;;4.95;0.70;;;;;;;;;;4979754;28;20141;-70
2023/03/07 08:59:32;;;;;;;9.57;1.17;;;;;;;;;;4991200;28;20520;-70
2023/03/07 09:01:59;;;;;;;9.35;0.90;;;;;;;;;;4993772;28;20057;-69
2023/03/07 09:04:28;;;;;;;11.93;1.33;;;;;;;;;;4997767;28;20050;-70
2023/03/07 09:06:55;;;;;;;11.88;1.33;;;;;;;;;;4980676;28;20165;-70
2023/03/07 09:09:23;;;;;;;9.73;1.08;;;;;;;;;;4997651;28;20050;-69
2023/03/07 09:11:50;;;;;;;10.90;1.30;;;;;;;;;;4990471;28;20057;-69
2023/03/07 09:14:17;;;;;;;12.27;1.40;;;;;;;;;;4993529;28;20050;-70
2023/03/07 09:16:45;;;;;;;10.70;1.20;;;;;;;;;;4994662;28;20050;-69
2023/03/07 09:19:12;;;;;;;8.70;1.00;;;;;;;;;;4991980;28;20050;-70
2023/03/07 09:21:41;;;;;;;6.82;1.02;;;;;;;;;;4990812;28;20042;-69
2023/03/07 09:24:08;;;;;;;11.95;1.65;;;;;;;;;;4999618;28;20050;-69
2023/03/07 09:26:36;;;;;;;8.80;0.80;;;;;;;;;;5004371;28;20057;-69
2023/03/07 09:29:03;;;;;;;9.60;1.15;;;;;;;;;;4990552;28;20053;-70
2023/03/07 09:31:30;;;;;;;9.18;1.10;;;;;;;;;;5002573;28;20449;-70
2023/03/07 09:33:58;;;;;;;8.55;0.98;;;;;;;;;;4994622;28;20482;-69
2023/03/07 09:36:25;;;;;;;9.80;0.90;;;;;;;;;;4993651;28;20046;-69
2023/03/07 09:38:54;;;;;;;8.85;1.05;;;;;;;;;;4983521;28;20596;-69
2023/03/07 09:41:29;;;;;;;7.07;0.93;;;;;;;;;;4983727;28;20061;-69
2023/03/07 09:44:00;;;;;;;12.77;1.20;;;;;;;;;;4991136;28;20046;-69
2023/03/07 09:46:32;;;;;;;11.63;1.98;;;;;;;;;;4976960;28;20057;-69
2023/03/07 09:49:06;;;;;;;19.40;1.40;;;;;;;;;;4997166;28;20057;-69
2023/03/07 09:51:37;;;;;;;8.80;0.90;;;;;;;;;;5000532;28;20068;-69
2023/03/07 09:54:07;;;;;;;16.25;1.33;;;;;;;;;;4994809;28;20474;-69
2023/03/07 09:56:38;;;;;;;14.65;1.40;;;;;;;;;;4997753;28;20184;-69
2023/03/07 09:59:09;;;;;;;12.93;1.73;;;;;;;;;;4996386;28;20054;-69
2023/03/07 10:01:38;;;;;;;9.85;1.23;;;;;;;;;;4972385;28;20054;-69
2023/03/07 10:04:06;;;;;;;9.45;1.20;;;;;;;;;;4994232;28;20046;-69
2023/03/07 10:06:36;;;;;;;5.72;0.73;;;;;;;;;;4982382;28;20133;-70
2023/03/07 10:09:05;;;;;;;8.25;0.85;;;;;;;;;;4993367;28;20137;-69
2023/03/07 10:11:46;;;;;;;9.23;1.45;;;;;;;;;;4992479;28;20044;-69
2023/03/07 10:14:18;;;;;;;10.60;1.13;;;;;;;;;;4991336;28;20458;-69
2023/03/07 10:16:49;;;;;;;8.93;1.10;;;;;;;;;;4997129;28;20060;-69
2023/03/07 10:19:21;;;;;;;10.05;1.67;;;;;;;;;;4994245;28;20073;-69
2023/03/07 10:21:52;;;;;;;6.32;0.70;;;;;;;;;;4996210;28;20053;-69
2023/03/07 10:24:37;;;;;;;6.82;1.08;;;;;;;;;;4995745;28;20100;-69
2023/03/07 10:27:06;;;;;;;6.28;1.17;;;;;;;;;;5004130;28;20056;-69
2023/03/07 10:29:35;;;;;;;12.18;1.33;;;;;;;;;;4986538;28;20050;-69
2023/03/07 10:32:12;;;;;;;7.78;1.60;;;;;;;;;;5003831;28;20039;-69
2023/03/07 10:34:39;;;;;;;11.38;1.20;;;;;;;;;;4998093;28;20054;-70
2023/03/07 10:37:11;;;;;;;6.47;1.00;;;;;;;;;;4993773;28;20516;-69
2023/03/07 10:39:42;;;;;;;9.45;1.20;;;;;;;;;;4999314;28;20145;-69
2023/03/07 10:42:11;;;;;;;11.23;1.33;;;;;;;;;;4994344;28;20054;-69
2023/03/07 10:44:39;;;;;;;8.95;0.93;;;;;;;;;;4988849;28;20054;-69
2023/03/07 10:47:07;;;;;;;9.25;1.63;;;;;;;;;;4991760;28;20058;-70
2023/03/07 10:49:38;;;;;;;12.05;1.10;;;;;;;;;;4995246;28;20565;-69
2023/03/07 10:52:07;;;;;;;10.20;1.00;;;;;;;;;;4975299;28;20498;-69
2023/03/07 10:54:35;;;;;;;8.68;0.98;;;;;;;;;;4974883;28;20449;-69
2023/03/07 10:57:03;;;;;;;11.73;1.10;;;;;;;;;;4990555;28;20046;-69
2023/03/07 10:59:32;;;;;;;9.85;1.00;;;;;;;;;;4991778;28;20062;-69
2023/03/07 11:02:01;;;;;;;11.90;0.90;;;;;;;;;;4975938;28;20077;-69
2023/03/07 11:04:29;;;;;;;13.63;1.20;;;;;;;;;;4991169;28;20038;-69
2023/03/07 11:06:57;;;;;;;8.77;1.00;;;;;;;;;;4994559;28;20061;-70
2023/03/07 11:09:26;;;;;;;11.05;1.02;;;;;;;;;;4991084;28;20101;-69
2023/03/07 11:11:55;;;;;;;12.50;1.00;;;;;;;;;;4997105;28;20042;-69
2023/03/07 11:14:23;;;;;;;8.88;1.08;;;;;;;;;;4994316;28;20046;-69
2023/03/07 11:16:54;;;;;;;6.13;0.82;;;;;;;;;;4993714;28;20089;-69
2023/03/07 11:19:36;;;;;;;11.52;0.90;;;;;;;;;;4975999;28;20058;-69
2023/03/07 11:22:05;;;;;;;8.32;0.93;;;;;;;;;;4994097;28;20108;-69
2023/03/07 11:24:33;;;;;;;8.07;1.10;;;;;;;;;;4994028;28;20046;-69
2023/03/07 11:27:01;;;;;;;8.55;0.95;;;;;;;;;;4999364;28;20493;-69
2023/03/07 11:29:28;;;;;;;7.65;1.02;;;;;;;;;;5002253;28;20405;-69
2023/03/07 11:32:03;;;;;;;13.90;0.95;;;;;;;;;;5003670;28;20058;-69
2023/03/07 11:34:37;;;;;;;6.38;1.00;;;;;;;;;;4992730;28;20050;-69
2023/03/07 11:37:17;;;;;;;10.02;0.95;;;;;;;;;;4995487;28;20129;-69
2023/03/07 11:39:47;;;;;;;6.47;0.85;;;;;;;;;;4996075;28;20046;-69
2023/03/07 11:42:17;;;;;;;7.47;1.08;;;;;;;;;;4997189;28;20652;-69
2023/03/07 11:44:52;;;;;;;4.65;0.77;;;;;;;;;;4994979;28;20100;-69
2023/03/07 11:47:34;;;;;;;7.72;0.75;;;;;;;;;;4998513;28;20490;-69
2023/03/07 11:50:22;;;;;;;10.57;1.35;;;;;;;;;;4989775;28;20050;-69
2023/03/07 11:53:10;;;;;;;9.85;0.90;;;;;;;;;;4993121;28;20042;-69
2023/03/07 11:55:39;;;;;;;11.23;1.38;;;;;;;;;;4991481;28;20052;-69
2023/03/07 11:58:18;;;;;;;7.32;0.90;;;;;;;;;;4990415;28;20046;-69
2023/03/07 12:00:53;;;;;;;9.38;0.98;;;;;;;;;;4995077;28;20497;-69
2023/03/07 12:03:35;;;;;;;9.23;0.93;;;;;;;;;;4997056;28;20045;-69
2023/03/07 12:06:19;;;;;;;5.05;0.68;;;;;;;;;;4998779;28;20057;-69
2023/03/07 12:08:46;;;;;;;;;;;;;;;;;;4996734;28;20068;-69
2023/03/07 12:11:19;;;;;;;12.88;1.40;;;;;;;;;;4980698;28;19953;-69
2023/03/07 12:13:53;;;;;;;12.10;1.40;;;;;;;;;;4983896;28;20141;-69
2023/03/07 12:16:26;;;;;;;7.00;1.08;;;;;;;;;;5001017;28;20046;-69
2023/03/07 12:19:03;;;;;;;7.53;1.10;;;;;;;;;;4991978;28;20413;-69
2023/03/07 12:21:41;;;;;;;9.98;1.10;;;;;;;;;;5003024;28;20058;-69
2023/03/07 12:24:15;;;;;;;10.65;1.20;;;;;;;;;;5004370;28;20486;-69
2023/03/07 12:26:48;;;;;;;10.43;1.60;;;;;;;;;;5006593;28;20053;-69
2023/03/07 12:29:20;;;;;;;11.18;1.48;;;;;;;;;;4978734;28;20081;-69
2023/03/07 12:31:49;;;;;;;6.85;0.85;;;;;;;;;;4982769;28;20490;-69
2023/03/07 12:34:19;;;;;;;6.75;1.05;;;;;;;;;;5001230;28;20050;-69
2023/03/07 12:36:51;;;;;;;14.85;1.10;;;;;;;;;;4995128;28;20083;-69
2023/03/07 12:39:22;;;;;;;8.98;0.85;;;;;;;;;;4997683;28;20062;-69
2023/03/07 12:41:53;;;;;;;7.70;0.90;;;;;;;;;;4999556;28;20050;-69
2023/03/07 12:44:28;;;;;;;8.90;1.05;;;;;;;;;;5001290;28;20519;-69
2023/03/07 12:47:01;;;;;;;6.78;0.80;;;;;;;;;;4995828;28;20058;-69
2023/03/07 12:49:31;;;;;;;4.90;0.52;;;;;;;;;;4994616;28;20057;-69
2023/03/07 12:52:02;;;;;;;4.90;0.40;;;;;;;;;;5000472;28;20048;-68
2023/03/07 12:54:30;;;;;;;3.63;0.60;;;;;;;;;;4993132;28;20050;-69
2023/03/07 12:57:00;;;;;;;4.18;0.80;;;;;;;;;;4995826;28;20116;-68
2023/03/07 12:59:27;;;;;;;7.18;0.90;;;;;;;;;;4996338;28;20042;-69
2023/03/07 13:01:59;;;;;;;4.03;0.52;;;;;;;;;;4984746;28;20057;-69
2023/03/07 13:04:29;;;;;;;4.05;0.88;;;;;;;;;;4998702;28;20481;-69
2023/03/07 13:07:01;;;;;;;12.80;1.40;;;;;;;;;;4996402;28;20387;-69
2023/03/07 13:09:32;;;;;;;7.78;0.65;;;;;;;;;;4999869;28;20494;-69
2023/03/07 13:12:19;;;;;;;3.90;0.60;;;;;;;;;;4997292;28;20050;-69
2023/03/07 13:14:46;;;;;;;4.15;0.60;;;;;;;;;;5002280;28;21052;-69
2023/03/07 13:17:14;;;;;;;7.57;0.60;;;;;;;;;;5002730;28;20057;-68
2023/03/07 13:20:03;;;;;;;2.85;0.57;;;;;;;;;;5001244;28;20054;-69
2023/03/07 13:22:49;;;;;;;2.80;0.45;;;;;;;;;;5000374;28;20061;-68
2023/03/07 13:25:35;;;;;;;5.22;0.57;;;;;;;;;;4976666;28;20068;-68
2023/03/07 13:28:05;;;;;;;4.00;0.88;;;;;;;;;;5002000;28;20054;-69
2023/03/07 13:30:33;;;;;;;4.88;0.70;;;;;;;;;;5000513;28;20051;-68
2023/03/07 13:33:00;;;;;;;3.65;0.82;;;;;;;;;;5005830;28;20046;-68
2023/03/07 13:36:01;;;;;;;7.05;0.80;;;;;;;;;;4998783;28;20050;-68
2023/03/07 13:38:35;;;;;;;2.83;0.45;;;;;;;;;;4935690;29;20062;-67
2023/03/07 13:41:03;;;;;;;4.32;0.77;;;;;;;;;;4943338;29;20159;-68
2023/03/07 13:43:55;;;;;;;3.20;0.65;;;;;;;;;;4966831;28;20112;-68
2023/03/07 13:46:31;;;;;;;4.30;0.60;;;;;;;;;;4992824;28;20049;-68
2023/03/07 13:49:00;;;;;;;6.57;0.68;;;;;;;;;;4995366;28;20050;-68
2023/03/07 13:51:28;;;;;;;7.57;0.95;;;;;;;;;;4998777;28;20483;-68
2023/03/07 13:54:00;;;;;;;11.23;1.00;;;;;;;;;;4995362;28;20061;-68
2023/03/07 13:56:29;;;;;;;6.90;1.23;;;;;;;;;;4995075;28;20501;-68
2023/03/07 13:58:58;;;;;;;6.28;0.70;;;;;;;;;;4995038;28;20050;-68
2023/03/07 14:01:28;;;;;;;7.18;1.13;;;;;;;;;;4998666;28;20056;-68
2023/03/07 14:03:59;;;;;;;10.52;1.23;;;;;;;;;;4997114;28;20301;-68
2023/03/07 14:06:31;;;;;;;6.13;0.82;;;;;;;;;;4995939;28;20045;-68
2023/03/07 14:09:00;;;;;;;6.50;0.65;;;;;;;;;;4993703;28;20070;-68
2023/03/07 14:11:29;;;;;;;5.65;0.80;;;;;;;;;;4991038;28;20062;-68
2023/03/07 14:14:13;;;;;;;8.93;0.85;;;;;;;;;;4992027;28;20539;-68
2023/03/07 14:16:50;;;;;;;5.55;0.52;;;;;;;;;;5001446;28;20050;-68
2023/03/07 14:19:24;;;;;;;4.97;0.70;;;;;;;;;;5001099;28;20046;-68
2023/03/07 14:21:55;;;;;;;4.85;0.82;;;;;;;;;;5000254;28;20387;-68
2023/03/07 14:24:38;;;;;;;5.20;0.82;;;;;;;;;;4997564;28;20053;-68
2023/03/07 14:27:06;;;;;;;7.03;0.85;;;;;;;;;;4996597;28;20047;-68
2023/03/07 14:29:33;;;;;;;5.40;0.90;;;;;;;;;;5001530;28;20049;-68
2023/03/07 14:32:01;;;;;;;4.03;0.70;;;;;;;;;;4994390;28;20050;-68
2023/03/07 14:34:30;;;;;;;6.60;0.82;;;;;;;;;;4995656;28;20481;-68
2023/03/07 14:36:59;;;;;;;6.13;0.68;;;;;;;;;;4982948;28;20133;-68
2023/03/07 14:39:30;;;;;;;2.58;0.60;;;;;;;;;;5004011;28;20053;-69
2023/03/07 14:42:04;;;;;;;3.58;0.40;;;;;;;;;;4994731;28;20108;-68
2023/03/07 14:44:47;;;;;;;5.40;0.73;;;;;;;;;;5000495;28;20109;-68
2023/03/07 14:47:24;;;;;;;2.33;0.68;;;;;;;;;;4993347;28;20046;-68
2023/03/07 14:49:55;;;;;;;2.92;0.77;;;;;;;;;;4986104;28;20053;-68